Terminal Aerodrome Forecast
Issued by NWS

Home | Current Version | Previous Version | Text Only | Print | Product List | Glossary On
Versions: 1 2 3 4 5 6 7 8 9 10 11 12 13 14 15
000
FTUS46 KPDT 300500
TAFDLS
TAF
KDLS 300520Z 3006/3106 29010KT P6SM SCT150
     FM301700 31011G16KT P6SM FEW150 SCT200
     FM302100 31019G28KT P6SM BKN150=

USA.gov is the U.S. government's official web portal to all federal, state and local government web resources and services.